createdAt,value
2023-01-09T00:10:17.656Z,8.4
2023-01-09T00:25:32.242Z,8.5
2023-01-09T00:40:41.562Z,8.5
2023-01-09T00:55:51.210Z,8.5
2023-01-09T01:11:00.697Z,8.4
2023-01-09T01:26:10.363Z,8.5
2023-01-09T01:41:23.423Z,8.5
2023-01-09T01:56:32.650Z,8.5
2023-01-09T02:11:42.474Z,8.5
2023-01-09T02:26:51.921Z,8.5
2023-01-09T02:42:01.890Z,8.5
2023-01-09T02:57:12.326Z,8.5
2023-01-09T03:12:21.813Z,8.4
2023-01-09T03:27:30.234Z,8.4
2023-01-09T03:42:39.949Z,8.4
2023-01-09T03:57:49.893Z,8.3
2023-01-09T04:12:59.070Z,8.2
2023-01-09T04:28:11.455Z,8.1
2023-01-09T04:43:21.024Z,8
2023-01-09T04:58:30.273Z,7.9
2023-01-09T05:13:39.691Z,7.8
2023-01-09T05:28:49.118Z,7.7
2023-01-09T05:43:58.697Z,7.7
2023-01-09T05:59:10.221Z,7.7
2023-01-09T06:14:19.655Z,7.6
2023-01-09T06:29:29.621Z,7.6
2023-01-09T06:44:39.723Z,7.5
2023-01-09T06:59:49.316Z,7.4
2023-01-09T07:14:59.155Z,7.2
2023-01-09T07:30:08.464Z,7.1
2023-01-09T07:45:20.024Z,6.9
2023-01-09T08:00:29.602Z,6.7
2023-01-09T08:15:42.834Z,6.7
2023-01-09T08:30:56.311Z,6.8
2023-01-09T08:46:06.247Z,6.8
2023-01-09T09:01:20.098Z,7
2023-01-09T09:16:32.950Z,7.1
2023-01-09T09:31:42.059Z,7.2
2023-01-09T09:46:52.241Z,7.4
2023-01-09T10:02:02.460Z,7.5
2023-01-09T10:17:15.962Z,7.6
2023-01-09T10:32:26.659Z,7.9
2023-01-09T10:47:39.260Z,8.1
2023-01-09T11:02:49.325Z,8.2
2023-01-09T11:17:59.120Z,8.3
2023-01-09T11:33:09.979Z,8.3
2023-01-09T11:48:19.524Z,8.4
2023-01-09T12:03:29.050Z,8.5
2023-01-09T12:18:39.318Z,8.7
2023-01-09T12:33:50.404Z,8.9
2023-01-09T12:49:00.237Z,9
2023-01-09T13:04:09.941Z,9
2023-01-09T13:19:20.758Z,9.1
2023-01-09T13:34:30.652Z,9
2023-01-09T13:49:40.612Z,8.9
2023-01-09T14:04:50.200Z,8.8
2023-01-09T14:20:00.179Z,8.8
2023-01-09T14:35:09.567Z,8.6
2023-01-09T14:50:20.776Z,8.5
2023-01-09T15:05:30.462Z,8.4
2023-01-09T15:20:40.262Z,8.3
2023-01-09T15:35:49.654Z,8.2
2023-01-09T15:50:59.182Z,8
2023-01-09T16:06:08.652Z,7.8
2023-01-09T16:21:18.321Z,7.7
2023-01-09T16:36:27.716Z,7.6
2023-01-09T16:51:36.963Z,7.5
2023-01-09T17:06:46.403Z,7.4
2023-01-09T17:21:56.243Z,7.3
2023-01-09T17:37:05.400Z,7.2
2023-01-09T17:52:15.281Z,7.1
2023-01-09T18:07:24.270Z,6.9
2023-01-09T18:22:33.493Z,6.8
2023-01-09T18:37:43.035Z,6.8
2023-01-09T18:52:52.575Z,7
2023-01-09T19:08:02.334Z,7.1
2023-01-09T19:23:12.462Z,7.1
2023-01-09T19:38:22.641Z,7
2023-01-09T19:53:32.674Z,6.9
2023-01-09T20:08:41.169Z,6.9
2023-01-09T20:23:50.706Z,7
2023-01-09T20:39:00.409Z,7
2023-01-09T20:54:10.082Z,7.1
2023-01-09T21:09:21.365Z,7.1
2023-01-09T21:24:30.781Z,7
2023-01-09T21:39:42.905Z,7
2023-01-09T21:54:52.160Z,7
2023-01-09T22:10:01.846Z,6.9
2023-01-09T22:25:11.364Z,6.9
2023-01-09T22:40:20.988Z,6.8
2023-01-09T22:55:33.029Z,6.8
2023-01-09T23:10:42.784Z,6.7
2023-01-09T23:25:52.418Z,6.7
2023-01-09T23:41:02.188Z,6.7
2023-01-09T23:56:12.182Z,6.8
